Time;durP1;ratioP1;P1;durP2;ratioP2;P2;SDS_P1;SDS_P2;PMS_P1;PMS_P2;Temp;Humidity;BMP_temperature;BMP_pressure;BME280_temperature;BME280_humidity;BME280_pressure;Samples;Min_cycle;Max_cycle;Signal;HPM_P1;HPM_P2
2022/03/10 00:02:06;;;;;;;;;;;;;;;0.06;96.89;102084.47;10216933;29;20347;-67
2022/03/10 00:07:10;;;;;;;;;;;;;;;-0.10;98.31;102085.25;10218721;29;20022;-66
2022/03/10 00:12:14;;;;;;;;;;;;;;;-0.13;98.13;102103.81;10219571;29;20332;-67
2022/03/10 00:17:19;;;;;;;;;;;;;;;-0.11;97.42;102109.00;10219146;29;19922;-66
2022/03/10 00:22:22;;;;;;;;;;;;;;;-0.08;96.91;102106.63;10219855;29;19923;-64
2022/03/10 00:27:25;;;;;;;;;;;;;;;-0.21;96.64;102104.16;10219132;29;20352;-67
2022/03/10 00:32:30;;;;;;;;;;;;;;;-0.22;97.04;102108.34;10218573;29;19923;-64
2022/03/10 00:37:33;;;;;;;;;;;;;;;-0.26;97.79;102111.50;10218727;29;19923;-66
2022/03/10 00:42:37;;;;;;;;;;;;;;;-0.32;97.52;102123.00;10218556;29;19922;-65
2022/03/10 00:47:41;;;;;;;;;;;;;;;-0.39;98.04;102129.41;10218540;29;19937;-68
2022/03/10 00:52:45;;;;;;;;;;;;;;;-0.33;98.26;102134.88;10217861;29;19933;-67
2022/03/10 00:57:49;;;;;;;;;;;;;;;-0.38;97.91;102148.13;10217961;29;20007;-68
2022/03/10 01:02:53;;;;;;;;;;;;;;;-0.48;98.54;102146.66;10217041;29;19923;-65
2022/03/10 01:20:26;;;;;;;;;;;;;;;-0.48;98.05;102158.53;10211309;29;19922;-68
2022/03/10 01:25:29;;;;;;;;;;;;;;;-0.52;98.01;102167.66;10217191;29;19923;-66
2022/03/10 01:30:32;;;;;;;;;;;;;;;-0.63;98.61;102173.75;10217211;29;19923;-67
2022/03/10 01:35:37;;;;;;;;;;;;;;;-0.62;99.01;102179.75;10216721;29;19923;-65
2022/03/10 01:40:40;;;;;;;;;;;;;;;-0.69;97.68;102187.78;10216824;29;20302;-66
2022/03/10 01:45:43;;;;;;;;;;;;;;;-0.78;98.47;102193.19;10216631;29;19942;-68
2022/03/10 01:50:48;;;;;;;;;;;;;;;-0.77;98.59;102197.47;9875315;28;10000022;-66
2022/03/10 01:55:51;;;;;;;;;;;;;;;-1.01;99.34;102205.19;10252959;28;20450;-63
2022/03/10 02:00:54;;;;;;;;;;;;;;;-1.01;99.51;102211.19;10252809;28;19922;-66
2022/03/10 02:05:59;;;;;;;;;;;;;;;-0.92;99.82;102219.44;10252944;28;20020;-68
2022/03/10 02:11:02;;;;;;;;;;;;;;;-0.86;98.26;102227.47;10252630;28;19922;-65
2022/03/10 02:21:32;;;;;;;;;;;;;;;-0.94;98.01;102238.81;10263319;28;19928;-63
2022/03/10 02:26:37;;;;;;;;;;;;;;;-0.98;97.88;102246.19;10263640;28;19922;-67
2022/03/10 02:31:40;;;;;;;;;;;;;;;-1.10;98.53;102248.78;10263385;28;19923;-67
2022/03/10 02:36:43;;;;;;;;;;;;;;;-1.22;98.46;102255.59;10263130;28;19930;-65
2022/03/10 02:41:48;;;;;;;;;;;;;;;-1.15;98.84;102265.41;10262775;28;19922;-66
2022/03/10 02:46:51;;;;;;;;;;;;;;;-1.22;98.70;102265.78;10262464;28;19922;-68
2022/03/10 02:51:54;;;;;;;;;;;;;;;-1.35;99.46;102276.81;10262396;28;20274;-65
2022/03/10 02:57:15;;;;;;;;;;;;;;;-1.29;99.03;102286.53;10262227;28;20401;-65
2022/03/10 03:02:18;;;;;;;;;;;;;;;-1.34;97.31;102298.97;10262110;28;19937;-67
2022/03/10 03:07:21;;;;;;;;;;;;;;;-1.50;98.63;102306.31;10261938;28;20240;-66
2022/03/10 03:12:25;;;;;;;;;;;;;;;-1.59;98.18;102302.25;10261361;28;19922;-65
2022/03/10 03:17:29;;;;;;;;;;;;;;;-1.59;97.96;102315.84;10261560;28;20009;-65
2022/03/10 03:22:32;;;;;;;;;;;;;;;-1.50;96.72;102326.69;10261388;28;19938;-65
2022/03/10 03:27:36;;;;;;;;;;;;;;;-1.66;96.32;102328.97;10260435;28;19932;-65
2022/03/10 03:32:39;;;;;;;;;;;;;;;-1.71;96.69;102342.13;10261063;28;19944;-64
2022/03/10 03:37:43;;;;;;;;;;;;;;;-1.72;97.15;102343.78;10260552;29;19932;-65
2022/03/10 03:42:47;;;;;;;;;;;;;;;-1.78;96.63;102340.81;10260405;28;19922;-63
2022/03/10 03:47:53;;;;;;;;;;;;;;;-1.79;94.54;102355.94;10260387;28;20398;-64
2022/03/10 03:52:56;;;;;;;;;;;;;;;-1.79;93.71;102356.84;10260527;28;20270;-64
2022/03/10 03:58:01;;;;;;;;;;;;;;;-1.79;92.56;102361.03;10260107;28;20001;-65
2022/03/10 04:03:06;;;;;;;;;;;;;;;-1.85;91.76;102361.50;10259954;28;19922;-67
2022/03/10 04:08:10;;;;;;;;;;;;;;;-1.89;91.49;102367.16;10260487;28;19923;-66
2022/03/10 04:13:14;;;;;;;;;;;;;;;-1.87;90.46;102383.41;10259630;28;19928;-69
2022/03/10 04:18:17;;;;;;;11.43;5.60;;;;;;;-1.94;90.41;102385.41;10258986;28;20218;-67
2022/03/10 04:23:21;;;;;;;12.13;5.53;;;;;;;-2.01;90.16;102389.16;10259360;28;20235;-67
2022/03/10 04:28:25;;;;;;;13.88;7.45;;;;;;;-2.03;91.47;102393.25;10257020;28;20404;-67
2022/03/10 04:33:29;;;;;;;13.05;6.90;;;;;;;-2.09;91.65;102395.38;10255832;28;20422;-67
2022/03/10 04:38:32;;;;;;;13.82;7.63;;;;;;;-2.00;90.84;102407.88;10255802;28;20414;-66
2022/03/10 04:43:37;;;;;;;13.85;7.40;;;;;;;-2.15;89.08;102421.97;10255292;28;20443;-64
2022/03/10 04:48:40;;;;;;;13.17;6.20;;;;;;;-1.99;89.27;102417.25;10255453;28;20403;-67
2022/03/10 04:53:46;;;;;;;13.23;7.15;;;;;;;-2.09;87.88;102425.88;10255194;28;20412;-65
2022/03/10 04:58:50;;;;;;;15.73;7.40;;;;;;;-2.15;87.47;102434.69;10254965;28;20460;-67
2022/03/10 05:03:54;;;;;;;13.10;6.45;;;;;;;-2.16;86.14;102433.84;10255130;28;20404;-65
2022/03/10 05:09:02;;;;;;;13.27;6.63;;;;;;;-2.27;85.91;102447.41;10254814;28;20788;-66
2022/03/10 05:14:09;;;;;;;16.17;6.32;;;;;;;-2.23;85.79;102456.13;10254710;28;20417;-65
2022/03/10 05:19:12;;;;;;;20.05;9.88;;;;;;;-2.27;85.07;102469.38;10254139;28;20743;-67
2022/03/10 05:24:16;;;;;;;11.57;6.05;;;;;;;-2.27;85.42;102474.47;10254141;28;20400;-70
2022/03/10 05:29:21;;;;;;;16.27;6.60;;;;;;;-2.28;84.95;102483.78;10254158;28;20847;-66
2022/03/10 05:34:26;;;;;;;14.60;6.72;;;;;;;-2.20;85.04;102492.84;10253787;28;20428;-67
2022/03/10 05:39:29;;;;;;;12.63;6.28;;;;;;;-2.22;84.56;102511.28;10254018;28;20396;-67
2022/03/10 05:44:34;;;;;;;13.75;6.80;;;;;;;-2.20;85.34;102519.94;10253406;28;20448;-64
2022/03/10 05:49:37;;;;;;;12.98;6.78;;;;;;;-2.25;84.53;102526.31;10257879;28;20881;-65
2022/03/10 05:54:40;;;;;;;12.00;5.87;;;;;;;-2.21;82.47;102526.69;10263755;28;20407;-64
2022/03/10 05:59:45;;;;;;;25.97;13.13;;;;;;;-2.07;82.05;102535.34;9947654;28;10000949;-69
2022/03/10 06:04:48;;;;;;;15.90;6.82;;;;;;;-2.17;81.69;102545.63;10277371;28;20423;-67
2022/03/10 06:09:52;;;;;;;11.85;6.10;;;;;;;-2.11;81.90;102546.94;10266059;28;20414;-65
2022/03/10 06:14:57;;;;;;;18.73;6.43;;;;;;;-1.93;82.02;102562.72;10286480;28;20462;-66
2022/03/10 06:20:00;;;;;;;11.90;6.20;;;;;;;-1.81;81.23;102563.63;10262921;29;20952;-67
2022/03/10 06:25:10;;;;;;;10.95;5.53;;;;;;;-1.75;78.29;102576.78;10263303;28;20423;-66
2022/03/10 06:30:15;;;;;;;11.20;5.63;;;;;;;-1.68;78.58;102585.00;10262811;28;20430;-66
2022/03/10 06:35:18;;;;;;;11.23;5.30;;;;;;;-1.63;76.26;102591.31;10262873;28;20404;-64
2022/03/10 06:40:21;;;;;;;11.00;4.97;;;;;;;-1.66;75.09;102597.84;10262766;28;20403;-64
2022/03/10 06:45:26;;;;;;;11.55;5.32;;;;;;;-1.63;74.88;102593.88;10262539;28;20491;-65
2022/03/10 06:50:29;;;;;;;10.05;5.05;;;;;;;-1.51;74.64;102598.97;10262483;29;20433;-67
2022/03/10 06:55:33;;;;;;;11.32;5.28;;;;;;;-1.24;73.82;102608.59;10262268;28;20512;-67
2022/03/10 07:00:38;;;;;;;10.35;4.95;;;;;;;-1.28;71.07;102599.00;10258914;28;20443;-69
2022/03/10 07:05:43;;;;;;;12.10;4.80;;;;;;;-1.15;71.36;102601.66;10264327;28;20408;-66
2022/03/10 07:10:46;;;;;;;12.35;4.95;;;;;;;-1.05;71.17;102610.84;10255555;29;20443;-71
2022/03/10 07:15:51;;;;;;;12.13;5.07;;;;;;;-0.89;69.80;102608.59;10255557;28;20740;-67
2022/03/10 07:20:54;;;;;;;17.08;7.60;;;;;;;-0.98;69.38;102613.94;10255312;28;20420;-67
2022/03/10 07:25:58;;;;;;;11.07;4.63;;;;;;;-0.84;68.80;102609.81;10262563;28;20754;-67
2022/03/10 07:31:03;;;;;;;9.52;4.88;;;;;;;-0.71;68.84;102613.38;10294618;28;20414;-65
2022/03/10 07:36:06;;;;;;;9.90;4.60;;;;;;;-0.57;68.31;102617.75;10295024;28;20411;-68
2022/03/10 07:41:10;;;;;;;12.27;4.90;;;;;;;-0.53;67.08;102617.19;10294482;28;20405;-67
2022/03/10 07:46:14;;;;;;;11.65;5.22;;;;;;;-0.55;67.06;102615.34;10294095;28;20742;-69
2022/03/10 07:51:18;;;;;;;10.10;4.88;;;;;;;-0.32;66.18;102618.72;10293941;28;20866;-66
2022/03/10 07:56:21;;;;;;;14.10;4.97;;;;;;;-0.25;65.34;102617.47;10285322;28;20408;-67
2022/03/10 08:06:46;;;;;;;11.00;4.70;;;;;;;-0.12;63.53;102620.06;10262579;28;20422;-63
2022/03/10 08:11:49;;;;;;;9.95;4.93;;;;;;;-0.14;64.78;102621.66;10259943;28;20420;-68
2022/03/10 08:16:54;;;;;;;11.15;5.28;;;;;;;0.05;63.57;102622.13;10253312;28;20422;-62
2022/03/10 08:21:58;;;;;;;8.15;4.10;;;;;;;0.25;61.08;102619.25;10252984;29;21111;-62
2022/03/10 08:27:01;;;;;;;11.43;4.77;;;;;;;0.31;61.41;102616.22;10252741;28;20419;-62
2022/03/10 08:32:07;;;;;;;9.63;3.88;;;;;;;0.49;61.04;102614.88;10254788;29;20506;-62
2022/03/10 08:37:10;;;;;;;7.38;3.58;;;;;;;0.72;57.91;102612.16;10255804;28;20443;-63
2022/03/10 08:42:14;;;;;;;9.60;4.00;;;;;;;0.62;57.30;102607.25;10262787;28;20420;-61
2022/03/10 08:47:18;;;;;;;8.37;3.50;;;;;;;0.54;55.91;102613.50;10292261;28;20742;-63
2022/03/10 08:52:22;;;;;;;7.37;3.23;;;;;;;0.90;55.67;102619.34;10292055;28;20411;-61
2022/03/10 08:57:25;;;;;;;7.45;3.45;;;;;;;1.02;53.85;102609.91;10266522;28;20409;-62
2022/03/10 09:02:30;;;;;;;8.20;2.97;;;;;;;1.09;52.19;102611.19;10251741;28;20414;-62
2022/03/10 09:07:33;;;;;;;9.32;3.70;;;;;;;1.17;52.31;102618.56;10271384;28;20407;-62
2022/03/10 09:12:43;;;;;;;8.38;3.65;;;;;;;1.50;52.33;102614.66;10291122;28;20411;-62
2022/03/10 09:17:52;;;;;;;8.00;3.25;;;;;;;1.68;51.08;102612.38;10265144;28;20428;-64
2022/03/10 09:22:56;;;;;;;6.55;2.80;;;;;;;1.72;50.84;102602.44;10250409;28;20408;-62
2022/03/10 09:27:59;;;;;;;8.52;3.85;;;;;;;2.45;49.85;102604.25;10251025;28;20399;-63
2022/03/10 09:33:03;;;;;;;6.43;3.17;;;;;;;2.99;48.48;102600.59;10250922;29;20408;-64
2022/03/10 09:38:08;;;;;;;6.25;2.70;;;;;;;3.08;46.10;102598.56;10275920;28;20402;-61
2022/03/10 09:43:11;;;;;;;7.43;3.25;;;;;;;3.55;46.13;102590.88;10290328;28;20390;-64
2022/03/10 09:48:16;;;;;;;8.15;3.05;;;;;;;4.22;45.37;102591.06;10289958;28;20418;-64
2022/03/10 09:53:19;;;;;;;7.18;3.00;;;;;;;5.01;45.34;102594.97;10290145;28;20410;-62
2022/03/10 09:58:23;;;;;;;6.00;2.60;;;;;;;5.58;42.70;102589.97;10292158;28;20224;-62
2022/03/10 10:03:28;;;;;;;6.83;2.60;;;;;;;6.28;41.20;102597.47;10274491;28;20738;-62
2022/03/10 10:08:32;;;;;;;5.53;1.97;;;;;;;6.78;41.15;102599.63;10252807;28;20298;-63
2022/03/10 10:13:39;;;;;;;6.67;2.97;;;;;;;6.95;39.80;102591.72;10252562;29;20327;-62
2022/03/10 10:18:44;;;;;;;8.80;2.60;;;;;;;7.62;39.95;102591.75;10252361;28;20255;-62
2022/03/10 10:23:52;;;;;;;8.87;2.97;;;;;;;7.80;38.40;102601.06;10252080;29;20612;-64
2022/03/10 10:28:55;;;;;;;5.50;2.13;;;;;;;8.07;36.74;102598.63;10252654;28;20231;-64
2022/03/10 10:34:03;;;;;;;7.93;2.60;;;;;;;8.24;36.25;102599.25;10252077;28;20646;-63
2022/03/10 10:39:11;;;;;;;6.63;2.40;;;;;;;8.75;37.06;102601.03;10259629;28;20256;-63
2022/03/10 10:44:17;;;;;;;5.47;2.27;;;;;;;8.79;35.87;102606.38;10259989;29;20560;-62
2022/03/10 10:49:23;;;;;;;5.63;2.10;;;;;;;8.96;35.49;102600.03;10284605;28;20219;-63
2022/03/10 10:54:28;;;;;;;5.43;2.00;;;;;;;9.19;34.09;102591.28;10298347;28;20319;-63
2022/03/10 10:59:34;;;;;;;6.87;2.53;;;;;;;9.80;34.31;102582.75;10270211;28;20525;-63
2022/03/10 11:04:46;;;;;;;5.90;2.20;;;;;;;10.29;33.66;102585.88;10258678;29;20311;-63
2022/03/10 11:09:53;;;;;;;8.27;2.40;;;;;;;10.72;32.83;102578.34;10285930;28;20229;-63
2022/03/10 11:14:56;;;;;;;5.67;2.30;;;;;;;10.74;32.17;102581.88;10298199;28;20314;-63
2022/03/10 11:20:07;;;;;;;5.40;2.43;;;;;;;11.21;31.73;102576.09;10297069;28;20586;-63
2022/03/10 11:25:37;;;;;;;5.93;2.43;;;;;;;11.46;31.90;102567.09;10298039;28;20234;-62
2022/03/10 11:30:41;;;;;;;7.17;2.50;;;;;;;12.26;32.22;102564.44;10297034;28;20568;-65
2022/03/10 11:35:47;;;;;;;5.53;2.30;;;;;;;12.67;31.85;102559.94;10297206;28;20231;-64
2022/03/10 11:40:52;;;;;;;6.67;2.40;;;;;;;12.44;30.43;102564.75;10296867;28;20707;-64
2022/03/10 11:46:17;;;;;;;6.60;3.23;;;;;;;13.26;30.83;102563.50;10296430;28;20266;-63
2022/03/10 11:51:41;;;;;;;9.33;2.60;;;;;;;13.69;30.50;102558.00;10296340;28;20230;-64
2022/03/10 11:57:06;;;;;;;10.00;2.70;;;;;;;13.81;29.30;102551.19;10290351;28;20282;-63
2022/03/10 12:02:29;;;;;;;8.67;3.20;;;;;;;13.86;29.00;102553.84;10256385;28;20583;-65
2022/03/10 12:07:35;;;;;;;5.57;2.27;;;;;;;14.48;28.56;102544.09;10256791;28;20216;-62
2022/03/10 12:12:39;;;;;;;5.13;2.40;;;;;;;14.26;28.03;102536.91;10255952;29;20255;-64
2022/03/10 12:17:56;;;;;;;5.23;2.33;;;;;;;14.59;27.83;102543.31;10255937;28;20232;-64
2022/03/10 12:23:12;;;;;;;8.23;2.63;;;;;;;14.72;26.45;102546.94;10255854;29;20223;-63
2022/03/10 12:28:25;;;;;;;5.93;2.47;;;;;;;14.95;26.26;102541.00;10255719;28;20224;-63
2022/03/10 12:33:30;;;;;;;4.60;1.90;;;;;;;14.60;26.54;102545.06;10255086;29;20270;-63
2022/03/10 12:38:45;;;;;;;6.43;2.20;;;;;;;14.55;25.94;102549.38;10255527;28;20250;-63
2022/03/10 12:43:54;;;;;;;4.93;2.07;;;;;;;13.73;27.13;102555.47;10254839;29;20641;-62
2022/03/10 12:49:06;;;;;;;6.23;1.97;;;;;;;13.11;27.74;102547.63;10257990;28;20224;-62
2022/03/10 12:54:11;;;;;;;4.57;2.03;;;;;;;12.88;27.02;102551.56;10256250;29;20348;-63
2022/03/10 12:59:15;;;;;;;5.90;2.50;;;;;;;11.33;29.55;102552.06;10256473;28;20212;-62
2022/03/10 13:04:18;;;;;;;6.50;1.90;;;;;;;11.75;27.86;102559.94;10257348;29;20228;-64
2022/03/10 13:09:24;;;;;;;9.27;2.43;;;;;;;11.53;27.43;102555.97;10256976;28;20212;-62
2022/03/10 13:14:29;;;;;;;5.40;2.00;;;;;;;11.16;28.34;102548.22;10256664;29;20240;-60
2022/03/10 13:19:38;;;;;;;5.93;2.27;;;;;;;11.50;28.26;102548.13;10256837;28;20247;-64
2022/03/10 13:24:46;;;;;;;5.40;2.10;;;;;;;10.70;28.62;102556.66;10256661;29;20544;-59
2022/03/10 13:29:52;;;;;;;6.60;3.43;;;;;;;10.54;30.34;102545.84;10256500;28;20230;-60
2022/03/10 13:34:59;;;;;;;5.17;2.00;;;;;;;10.77;29.42;102561.16;10255923;29;20652;-62
2022/03/10 13:40:05;;;;;;;12.10;5.13;;;;;;;10.37;29.97;102559.28;10256104;28;20230;-64
2022/03/10 13:45:09;;;;;;;7.43;2.97;;;;;;;9.93;30.37;102558.91;10255978;29;20302;-61
2022/03/10 13:50:13;;;;;;;6.40;2.73;;;;;;;9.58;30.85;102564.81;10255875;28;20226;-63
2022/03/10 13:55:17;;;;;;;7.10;2.50;;;;;;;9.60;30.60;102558.81;10255758;29;20306;-63
2022/03/10 14:00:26;;;;;;;9.83;2.60;;;;;;;9.05;32.32;102560.59;10255632;28;20219;-62
2022/03/10 14:05:39;;;;;;;6.90;2.47;;;;;;;8.86;32.33;102558.25;10255639;29;20220;-61
2022/03/10 14:10:45;;;;;;;5.10;2.00;;;;;;;8.50;31.81;102557.94;10258540;28;20610;-64
2022/03/10 14:15:50;;;;;;;5.43;2.00;;;;;;;8.17;32.55;102561.91;10263909;29;20252;-64
2022/03/10 14:20:56;;;;;;;6.93;2.50;;;;;;;7.16;34.47;102554.69;10296594;28;20243;-63
2022/03/10 14:26:01;;;;;;;;;;;;;;;6.37;33.78;102566.94;10303840;28;20126;-62
2022/03/10 14:31:06;;;;;;;8.00;2.80;;;;;;;5.92;33.60;102572.69;10299583;28;20472;-62
2022/03/10 14:36:11;;;;;;;7.07;2.53;;;;;;;5.57;36.59;102563.34;10302853;28;20245;-63
2022/03/10 14:41:21;;;;;;;5.87;2.50;;;;;;;5.42;35.39;102578.09;10302039;28;20557;-61
2022/03/10 14:46:24;;;;;;;5.97;2.67;;;;;;;5.17;35.68;102575.22;10299657;28;20398;-63
2022/03/10 14:51:28;;;;;;;5.85;2.40;;;;;;;4.97;35.06;102581.06;10299078;28;20930;-64
2022/03/10 14:56:34;;;;;;;7.93;2.40;;;;;;;4.83;35.46;102587.28;10298912;28;20410;-61
2022/03/10 15:01:38;;;;;;;8.43;3.20;;;;;;;4.64;35.51;102577.75;10299147;28;20430;-66
2022/03/10 15:06:42;;;;;;;7.40;2.80;;;;;;;4.37;36.26;102591.81;10295741;28;20402;-63
2022/03/10 15:12:08;;;;;;;8.00;3.00;;;;;;;4.38;39.49;102590.13;9951815;28;10000674;-62
2022/03/10 15:17:12;;;;;;;8.73;3.08;;;;;;;4.24;38.31;102593.69;10295432;28;20414;-62
2022/03/10 15:22:16;;;;;;;8.03;3.20;;;;;;;4.21;39.51;102596.13;10293331;28;20412;-63
2022/03/10 15:27:21;;;;;;;7.68;2.65;;;;;;;4.04;38.72;102597.78;10294820;28;20399;-62
2022/03/10 15:32:24;;;;;;;7.47;2.85;;;;;;;3.98;38.29;102592.34;10294009;28;20403;-63
2022/03/10 15:37:27;;;;;;;9.05;3.35;;;;;;;3.86;38.94;102604.56;10294581;28;20418;-62
2022/03/10 15:42:32;;;;;;;6.85;2.92;;;;;;;3.80;41.45;102608.47;10294141;28;20402;-62
2022/03/10 15:47:36;;;;;;;8.75;3.10;;;;;;;3.70;40.04;102607.09;10294633;28;20402;-61
2022/03/10 15:52:39;;;;;;;6.53;2.97;;;;;;;3.66;41.70;102617.16;10293490;28;20402;-62
2022/03/10 15:57:44;;;;;;;10.17;2.73;;;;;;;3.62;40.49;102616.09;10294518;28;20411;-63
2022/03/10 16:02:47;;;;;;;8.10;3.07;;;;;;;3.32;41.34;102622.09;10280095;28;20463;-61
2022/03/10 16:07:51;;;;;;;9.50;3.78;;;;;;;3.17;40.41;102624.72;10253491;29;20507;-62
2022/03/10 16:12:58;;;;;;;7.57;2.97;;;;;;;3.10;40.73;102629.41;10253311;28;20446;-62
2022/03/10 16:18:07;;;;;;;7.07;3.00;;;;;;;2.83;41.38;102644.09;10252926;28;20404;-62
2022/03/10 16:23:11;;;;;;;11.70;4.32;;;;;;;2.80;41.43;102653.31;10252586;29;20495;-65
2022/03/10 16:28:15;;;;;;;6.97;3.00;;;;;;;2.58;41.74;102655.41;10251819;28;20740;-63
2022/03/10 16:33:19;;;;;;;7.53;3.10;;;;;;;2.44;41.99;102663.97;10278951;28;20417;-62
2022/03/10 16:38:22;;;;;;;8.37;3.50;;;;;;;2.38;43.36;102660.25;10248822;28;20718;-62
2022/03/10 16:43:27;;;;;;;9.65;3.72;;;;;;;2.29;43.30;102674.22;10289843;28;20398;-63
2022/03/10 16:48:31;;;;;;;9.60;3.78;;;;;;;2.21;44.23;102671.16;10294841;28;20401;-62
2022/03/10 16:53:34;;;;;;;8.50;3.60;;;;;;;2.02;42.25;102675.97;10279896;28;20515;-60
2022/03/10 16:58:40;;;;;;;7.90;3.63;;;;;;;1.82;43.21;102681.53;10253976;28;20479;-61
2022/03/10 17:03:44;;;;;;;8.77;3.78;;;;;;;1.84;45.02;102685.09;10253465;28;20404;-62
2022/03/10 17:08:52;;;;;;;9.55;3.90;;;;;;;1.81;44.33;102694.25;10254207;28;20396;-62
2022/03/10 17:13:56;;;;;;;10.27;3.85;;;;;;;1.70;43.65;102691.03;10254211;28;20452;-61
2022/03/10 17:19:00;;;;;;;11.93;4.68;;;;;;;1.60;44.55;102700.56;10229955;29;20733;-61
2022/03/10 17:24:03;;;;;;;11.82;4.15;;;;;;;1.54;44.62;102698.50;10261931;28;20936;-64
2022/03/10 17:29:08;;;;;;;10.80;4.10;;;;;;;1.40;45.77;102704.41;10252798;28;20571;-64
2022/03/10 17:34:12;;;;;;;8.75;3.88;;;;;;;1.42;44.17;102707.97;10253277;28;20541;-62
2022/03/10 17:39:16;;;;;;;77.10;40.37;;;;;;;1.32;46.13;102710.72;10253523;28;20736;-61
2022/03/10 17:44:21;;;;;;;11.30;5.30;;;;;;;1.27;46.00;102717.22;10253040;28;20961;-61
2022/03/10 17:49:27;;;;;;;8.75;4.38;;;;;;;1.23;46.94;102715.25;10250478;28;20420;-67
2022/03/10 17:54:31;;;;;;;39.33;17.88;;;;;;;1.04;46.00;102719.94;10250215;28;20423;-65
2022/03/10 17:59:35;;;;;;;35.42;18.13;;;;;;;1.01;47.05;102729.97;10252888;28;20410;-64
2022/03/10 18:04:39;;;;;;;9.40;4.53;;;;;;;1.03;46.97;102738.63;10253008;28;20408;-66
2022/03/10 18:09:45;;;;;;;9.35;4.00;;;;;;;0.92;45.99;102737.03;10252893;28;20813;-66
2022/03/10 18:14:54;;;;;;;9.52;4.20;;;;;;;0.93;50.98;102742.22;10252913;28;20407;-66
2022/03/10 18:19:59;;;;;;;9.00;4.45;;;;;;;0.84;48.40;102745.84;10252801;28;20452;-67
2022/03/10 18:25:02;;;;;;;9.67;4.93;;;;;;;0.75;49.53;102742.69;10253072;28;20415;-65
2022/03/10 18:30:10;;;;;;;9.45;4.35;;;;;;;0.69;49.31;102743.16;10252676;28;20418;-66
2022/03/10 18:35:13;;;;;;;12.02;5.82;;;;;;;0.72;49.38;102750.16;10252509;28;20506;-64
2022/03/10 18:40:16;;;;;;;12.33;5.13;;;;;;;0.67;48.51;102748.94;10252625;28;20412;-68
2022/03/10 18:45:21;;;;;;;10.95;5.00;;;;;;;0.51;49.27;102748.69;10252409;28;20480;-69
2022/03/10 18:50:26;;;;;;;11.57;5.17;;;;;;;0.48;50.88;102757.03;10252105;28;20789;-66
2022/03/10 18:55:29;;;;;;;10.15;5.03;;;;;;;0.46;49.97;102756.03;10252981;28;20422;-67
2022/03/10 19:00:37;;;;;;;12.45;5.28;;;;;;;0.44;50.09;102759.25;10259436;28;20853;-66
2022/03/10 19:05:41;;;;;;;13.77;6.72;;;;;;;0.33;50.83;102760.22;10258910;29;20420;-66
2022/03/10 19:10:44;;;;;;;12.77;6.60;;;;;;;0.24;49.67;102769.78;10259056;28;20411;-66
2022/03/10 19:15:52;;;;;;;17.33;7.82;;;;;;;0.23;50.29;102758.66;10258487;28;20420;-67
2022/03/10 19:20:56;;;;;;;16.90;7.55;;;;;;;0.21;49.49;102759.34;10258722;28;20935;-66
2022/03/10 19:26:00;;;;;;;17.63;7.47;;;;;;;0.27;48.81;102764.88;10259215;28;20416;-66
2022/03/10 19:31:05;;;;;;;14.60;7.10;;;;;;;0.22;49.89;102771.34;10258317;29;20910;-64
2022/03/10 19:36:09;;;;;;;16.60;6.90;;;;;;;0.10;49.95;102765.38;10257832;29;20567;-63
2022/03/10 19:41:14;;;;;;;14.18;6.68;;;;;;;-0.05;50.06;102772.81;10257929;29;20426;-70
2022/03/10 19:46:19;;;;;;;14.43;7.15;;;;;;;-0.06;50.98;102779.63;10257530;29;20430;-69
2022/03/10 19:51:22;;;;;;;21.35;9.27;;;;;;;-0.12;49.08;102774.06;10257893;29;20562;-67
2022/03/10 19:56:27;;;;;;;16.00;8.02;;;;;;;-0.06;50.46;102773.59;10257068;29;20412;-63
2022/03/10 20:01:32;;;;;;;18.65;8.70;;;;;;;-0.12;50.60;102773.16;10257431;29;20412;-64
2022/03/10 20:06:36;;;;;;;20.40;8.90;;;;;;;-0.10;49.17;102775.06;10256130;28;20481;-67
2022/03/10 20:11:41;;;;;;;18.42;8.40;;;;;;;-0.21;50.13;102775.94;10255964;28;20462;-70
2022/03/10 20:16:46;;;;;;;18.85;9.18;;;;;;;-0.22;51.05;102773.28;10256564;28;20419;-66
2022/03/10 20:21:49;;;;;;;18.73;8.95;;;;;;;-0.27;51.17;102765.31;10254719;29;20498;-65
2022/03/10 20:26:52;;;;;;;18.77;9.23;;;;;;;-0.29;50.28;102778.72;10256371;28;20403;-63
2022/03/10 20:31:57;;;;;;;21.63;10.55;;;;;;;-0.47;50.40;102768.09;10256034;28;20388;-65
2022/03/10 20:37:01;;;;;;;19.07;9.07;;;;;;;-0.40;50.80;102774.53;10255830;28;20423;-66
2022/03/10 20:42:04;;;;;;;18.63;9.35;;;;;;;-0.50;50.35;102777.19;10255381;28;20491;-63
2022/03/10 20:47:09;;;;;;;17.80;9.47;;;;;;;-0.60;51.68;102779.81;10255511;28;20411;-67
2022/03/10 20:52:13;;;;;;;17.65;8.40;;;;;;;-0.61;51.14;102773.88;10255070;28;20849;-66
2022/03/10 20:57:17;;;;;;;24.73;11.47;;;;;;;-0.64;51.74;102773.63;10254883;28;20424;-64
2022/03/10 21:02:22;;;;;;;20.95;8.85;;;;;;;-0.64;50.83;102773.63;10254792;28;20752;-66
2022/03/10 21:07:26;;;;;;;17.92;8.73;;;;;;;-0.72;51.33;102773.84;10255217;29;20764;-63
2022/03/10 21:12:29;;;;;;;17.83;8.27;;;;;;;-0.68;51.41;102778.38;10254283;28;20438;-65
2022/03/10 21:17:34;;;;;;;19.80;8.97;;;;;;;-0.70;50.16;102777.38;10253961;28;20419;-64
2022/03/10 21:22:38;;;;;;;20.50;9.30;;;;;;;-0.72;51.92;102779.81;10253676;28;20405;-65
2022/03/10 21:27:41;;;;;;;20.40;8.88;;;;;;;-0.76;50.77;102784.59;10254120;28;20412;-63
2022/03/10 21:32:46;;;;;;;20.65;9.45;;;;;;;-0.98;52.14;102791.44;10253727;28;20453;-64
2022/03/10 21:37:49;;;;;;;20.50;9.95;;;;;;;-0.80;52.88;102791.13;10253598;28;20408;-65
2022/03/10 21:42:53;;;;;;;18.88;8.40;;;;;;;-0.91;52.22;102791.09;10252549;28;20412;-65
2022/03/10 21:47:57;;;;;;;22.25;10.35;;;;;;;-1.05;51.94;102792.59;10259532;28;20403;-65
2022/03/10 21:53:03;;;;;;;19.67;9.00;;;;;;;-1.20;52.62;102797.44;10293176;28;20420;-65
2022/03/10 21:58:06;;;;;;;23.73;9.95;;;;;;;-1.26;54.02;102807.16;10293013;28;20946;-67
2022/03/10 22:03:11;;;;;;;18.83;8.70;;;;;;;-1.28;52.73;102805.28;10293191;28;20398;-66
2022/03/10 22:08:15;;;;;;;19.80;9.30;;;;;;;-1.22;51.93;102803.19;10291262;28;20398;-63
2022/03/10 22:13:18;;;;;;;18.23;8.77;;;;;;;-1.21;53.54;102804.97;10289703;28;20417;-66
2022/03/10 22:18:23;;;;;;;17.48;8.48;;;;;;;-1.33;51.58;102801.50;10289818;28;20506;-64
2022/03/10 22:23:27;;;;;;;16.63;8.18;;;;;;;-1.38;52.65;102796.03;10289666;28;20474;-66
2022/03/10 22:28:30;;;;;;;15.77;7.80;;;;;;;-1.39;51.43;102795.94;10289453;28;20493;-66
2022/03/10 22:33:35;;;;;;;17.97;8.10;;;;;;;-1.24;52.50;102785.25;10295420;28;20405;-67
2022/03/10 22:38:38;;;;;;;16.67;7.95;;;;;;;-1.38;53.12;102790.94;10296696;28;20421;-68
2022/03/10 22:43:43;;;;;;;18.87;8.67;;;;;;;-1.47;52.38;102789.38;10296811;28;20859;-65
2022/03/10 22:48:48;;;;;;;17.60;8.07;;;;;;;-1.59;52.81;102780.78;9938836;28;10001267;-67
2022/03/10 22:59:13;;;;;;;16.40;8.00;;;;;;;-1.66;52.55;102782.00;10256317;29;20432;-64
2022/03/10 23:09:41;;;;;;;18.52;8.32;;;;;;;-1.66;53.44;102788.72;10255992;29;20439;-64
2022/03/10 23:14:44;;;;;;;17.77;7.88;;;;;;;-1.61;53.66;102795.06;10256107;28;20396;-65
2022/03/10 23:19:50;;;;;;;17.35;7.40;;;;;;;-1.78;53.45;102787.78;10255431;28;20499;-63
2022/03/10 23:24:53;;;;;;;18.05;8.05;;;;;;;-1.85;54.43;102782.97;10255400;29;20428;-63
2022/03/10 23:29:56;;;;;;;20.10;8.17;;;;;;;-1.79;53.48;102781.78;10255498;28;20418;-61
2022/03/10 23:35:01;;;;;;;14.95;7.53;;;;;;;-1.72;53.74;102780.59;10255406;28;20400;-64
2022/03/10 23:40:06;;;;;;;19.60;8.37;;;;;;;-1.71;53.81;102782.41;10248916;28;20434;-65
2022/03/10 23:45:10;;;;;;;19.80;8.27;;;;;;;-1.69;53.12;102783.41;10256912;28;20396;-64
2022/03/10 23:50:15;;;;;;;17.93;8.90;;;;;;;-1.73;53.15;102789.00;10257708;28;20414;-64
2022/03/10 23:55:18;;;;;;;18.08;8.52;;;;;;;-1.74;54.91;102787.22;10257601;28;20393;-62
